Strona główna
METAR-TAF:

METAR-TAF

Lotnisko :

Port lotniczy Cabo San Lucas

Cabo San Lucas, Meksyk

Szerokość geograficzna: 22-56-51N, Długość geograficzna: 109-56-13W, wysokość: 210 m

Aktualna obserwacja pogody

Raport powstał 47 minut temu, godzina 20:49 UTC
Wiatr 9 kt od południe
Temperatura 22°C
Wilgotność 65%
Ciśnienie 1015 hPa
Widzialność: 16.1 km
Mało chmury na wysokości 4500 ft
Mało chmury na wysokości 25000 ft

METAR: MMSL 232049Z 19009KT 10SM FEW045 FEW250 22/15 A2997 RMK 8/108

czas: 14:36 (21:36 UTC)

Prognoza

Raport powstał 4 godziny i 43 minut temu, godzina 16:53 UTC
Prognoza ważna od 23 godzina 18 UTC do 24 godzina 18 UTC
Wiatr 10 kt od zachodnio-północny zachód
Widzialność: 10 km
bezchmurnie
Od 24 godzina 1200 UTC
Wiatr kt od północ
Widzialność: 10 km
Rozproszone chmury na wysokości 2000 ft

TAF: MMSL 231653Z 2318/2418 29010KT P6SM SKC FM241200 00000KT P6SM SCT020

Obserwacja i prognoza pogody dla ponad 4000 lotnisk (raport METAR i TAF).

Dostępne stacje oznaczono żółtymi i czerwonymi punktami na mapie.

Najedź kursorem aby zobaczyć nazwę stacji.

Kliknij aby zobaczyć obserwacje i prognozy pogody.

Aby zmienić mapę: kliknij na zielony przycisk z czarnym krzyżykiem, aby powiększyć; na zielony przycisk z myślnikiem, aby pomniejszyć; na zielone strzałki, aby przejść do map sąsiednich.


METAR-TAF: